createdAt,value
2016-03-24T00:00:46.235Z,0
2016-03-24T00:01:46.222Z,0
2016-03-24T00:02:46.208Z,0
2016-03-24T00:03:46.211Z,0
2016-03-24T00:04:46.199Z,0
2016-03-24T00:05:46.186Z,0
2016-03-24T00:06:46.157Z,0
2016-03-24T00:07:46.160Z,0
2016-03-24T00:08:46.131Z,0
2016-03-24T00:09:46.119Z,0
2016-03-24T00:10:46.105Z,0
2016-03-24T00:11:46.077Z,0
2016-03-24T00:12:46.063Z,0
2016-03-24T00:13:46.051Z,0
2016-03-24T00:14:46.023Z,0
2016-03-24T00:15:46.026Z,0
2016-03-24T00:16:46.012Z,0
2016-03-24T00:17:45.999Z,0
2016-03-24T00:18:45.971Z,0
2016-03-24T00:19:45.973Z,0
2016-03-24T00:20:45.976Z,0
2016-03-24T00:21:45.931Z,0
2016-03-24T00:22:45.935Z,0
2016-03-24T00:23:45.922Z,0
2016-03-24T00:24:45.893Z,0
2016-03-24T00:25:45.880Z,0
2016-03-24T00:26:45.867Z,0
2016-03-24T00:27:45.854Z,0
2016-03-24T00:28:45.826Z,0
2016-03-24T00:29:45.813Z,0
2016-03-24T00:30:45.644Z,0
2016-03-24T00:31:45.787Z,0
2016-03-24T00:32:45.775Z,0
2016-03-24T00:33:45.761Z,0
2016-03-24T00:34:45.763Z,0
2016-03-24T00:35:45.719Z,0
2016-03-24T00:36:45.722Z,0
2016-03-24T00:37:45.710Z,0
2016-03-24T00:38:45.712Z,0
2016-03-24T00:39:45.683Z,0
2016-03-24T00:40:45.670Z,0
2016-03-24T00:41:45.658Z,0
2016-03-24T00:42:45.629Z,0
2016-03-24T00:43:45.601Z,0
2016-03-24T00:44:45.587Z,0
2016-03-24T00:45:45.591Z,0
2016-03-24T00:46:45.562Z,0
2016-03-24T00:47:45.565Z,0
2016-03-24T00:48:45.535Z,0
2016-03-24T00:49:45.538Z,0
2016-03-24T00:50:45.526Z,0
2016-03-24T00:51:45.497Z,0
2016-03-24T00:52:45.484Z,0
2016-03-24T00:53:45.470Z,0
2016-03-24T00:54:45.458Z,0
2016-03-24T00:55:45.445Z,0
2016-03-24T00:56:45.417Z,0
2016-03-24T00:57:45.403Z,0
2016-03-24T00:58:45.391Z,0
2016-03-24T00:59:45.362Z,0
2016-03-24T01:00:45.364Z,0
2016-03-24T01:01:45.336Z,0
2016-03-24T01:02:45.322Z,0
2016-03-24T01:03:45.326Z,0
2016-03-24T01:04:45.297Z,0
2016-03-24T01:05:45.300Z,0
2016-03-24T01:06:45.271Z,0
2016-03-24T01:07:45.258Z,0
2016-03-24T01:08:45.245Z,0
2016-03-24T01:09:45.217Z,0
2016-03-24T01:10:45.204Z,0
2016-03-24T01:11:45.191Z,0
2016-03-24T01:12:45.179Z,0
2016-03-24T01:13:45.166Z,0
2016-03-24T01:14:45.137Z,0
2016-03-24T01:15:45.140Z,0
2016-03-24T01:16:45.126Z,0
2016-03-24T01:17:45.098Z,0
2016-03-24T01:18:45.084Z,0
2016-03-24T01:19:45.087Z,0
2016-03-24T01:20:45.090Z,0
2016-03-24T01:21:45.045Z,0
2016-03-24T01:22:45.048Z,0
2016-03-24T01:23:45.036Z,0
2016-03-24T01:24:45.007Z,0
2016-03-24T01:25:44.994Z,0
2016-03-24T01:26:44.967Z,0
2016-03-24T01:27:44.953Z,0
2016-03-24T01:28:44.940Z,0
2016-03-24T01:29:44.927Z,0
2016-03-24T01:30:44.914Z,0
2016-03-24T01:31:44.900Z,0
2016-03-24T01:32:44.873Z,0
2016-03-24T01:33:44.875Z,0
2016-03-24T01:34:44.878Z,0
2016-03-24T01:35:44.880Z,0
2016-03-24T01:36:44.836Z,0
2016-03-24T01:37:44.824Z,0
2016-03-24T01:38:44.795Z,0
2016-03-24T01:39:44.782Z,0
2016-03-24T01:40:44.785Z,0
2016-03-24T01:41:44.757Z,0
2016-03-24T01:42:44.743Z,0
2016-03-24T01:43:44.730Z,0
2016-03-24T01:44:44.685Z,0
2016-03-24T01:45:44.688Z,0
2016-03-24T01:46:44.676Z,0
2016-03-24T01:47:44.663Z,0
2016-03-24T01:48:44.650Z,0
2016-03-24T01:49:44.637Z,0
2016-03-24T01:50:44.623Z,0
2016-03-24T01:51:44.627Z,0
2016-03-24T01:52:44.598Z,0
2016-03-24T01:53:44.585Z,0
2016-03-24T01:54:44.573Z,0
2016-03-24T01:55:44.545Z,0
2016-03-24T01:56:44.390Z,0
2016-03-24T01:57:44.518Z,0
2016-03-24T01:58:44.520Z,0
2016-03-24T01:59:44.492Z,0
2016-03-24T02:00:44.479Z,0
2016-03-24T02:01:44.466Z,0
2016-03-24T02:02:44.438Z,0
2016-03-24T02:03:44.393Z,0
2016-03-24T02:04:44.411Z,0
2016-03-24T02:05:44.383Z,0
2016-03-24T02:06:44.370Z,0
2016-03-24T02:07:44.357Z,0
2016-03-24T02:08:44.344Z,0
2016-03-24T02:09:44.332Z,0
2016-03-24T02:10:44.319Z,0
2016-03-24T02:11:44.305Z,0
2016-03-24T02:12:44.293Z,0
2016-03-24T02:13:44.263Z,0
2016-03-24T02:14:44.252Z,0
2016-03-24T02:15:44.238Z,0
2016-03-24T02:16:44.225Z,0
2016-03-24T02:17:44.212Z,0
2016-03-24T02:18:44.434Z,0
2016-03-24T02:19:44.187Z,0
2016-03-24T02:20:44.174Z,0
2016-03-24T02:21:44.145Z,0
2016-03-24T02:22:44.132Z,0
2016-03-24T02:23:44.120Z,0
2016-03-24T02:24:44.107Z,0
2016-03-24T02:25:44.093Z,0
2016-03-24T02:26:44.081Z,0
2016-03-24T02:27:44.067Z,0
2016-03-24T02:28:44.054Z,0
2016-03-24T02:29:44.026Z,0
2016-03-24T02:30:44.013Z,0
2016-03-24T02:31:44.000Z,0
2016-03-24T02:32:44.002Z,0
2016-03-24T02:33:44.052Z,0
2016-03-24T02:34:43.977Z,0
2016-03-24T02:35:43.964Z,0
2016-03-24T02:36:43.935Z,0
2016-03-24T02:37:43.922Z,0
2016-03-24T02:38:43.769Z,0
2016-03-24T02:39:43.944Z,0
2016-03-24T02:40:43.884Z,0
2016-03-24T02:41:43.855Z,0
2016-03-24T02:42:43.842Z,0
2016-03-24T02:43:43.830Z,0
2016-03-24T02:44:43.816Z,0
2016-03-24T02:45:43.788Z,0
2016-03-24T02:46:43.790Z,0
2016-03-24T02:47:43.762Z,0
2016-03-24T02:48:43.796Z,0
2016-03-24T02:49:43.736Z,0
2016-03-24T02:50:43.723Z,0
2016-03-24T02:51:43.710Z,0
2016-03-24T02:52:43.682Z,0
2016-03-24T02:53:43.685Z,0
2016-03-24T02:54:43.703Z,0
2016-03-24T02:55:43.643Z,0
2016-03-24T02:56:43.629Z,0
2016-03-24T02:57:43.617Z,0
2016-03-24T02:58:43.604Z,0
2016-03-24T02:59:43.591Z,0
2016-03-24T03:00:43.578Z,0
2016-03-24T03:01:43.564Z,0
2016-03-24T03:02:43.536Z,0
2016-03-24T03:03:43.867Z,0
2016-03-24T03:04:43.526Z,0
2016-03-24T03:05:43.497Z,0
2016-03-24T03:06:43.486Z,0
2016-03-24T03:07:43.472Z,0
2016-03-24T03:08:43.444Z,0
2016-03-24T03:09:43.430Z,0
2016-03-24T03:10:43.417Z,0
2016-03-24T03:11:43.404Z,0
2016-03-24T03:12:43.392Z,0
2016-03-24T03:13:43.394Z,0
2016-03-24T03:14:43.366Z,0
2016-03-24T03:15:43.352Z,0
2016-03-24T03:16:43.340Z,0
2016-03-24T03:17:43.326Z,0
2016-03-24T03:18:43.752Z,0
2016-03-24T03:19:43.285Z,0
2016-03-24T03:20:43.288Z,0
2016-03-24T03:21:43.260Z,0
2016-03-24T03:22:43.247Z,0
2016-03-24T03:23:43.234Z,0
2016-03-24T03:24:43.205Z,0
2016-03-24T03:25:43.207Z,0
2016-03-24T03:26:43.179Z,0
2016-03-24T03:27:43.167Z,0
2016-03-24T03:28:43.154Z,0
2016-03-24T03:29:43.140Z,0
2016-03-24T03:30:43.159Z,0
2016-03-24T03:31:43.114Z,0
2016-03-24T03:32:43.086Z,0
2016-03-24T03:33:43.183Z,0
2016-03-24T03:34:43.061Z,0
2016-03-24T03:35:43.048Z,0
2016-03-24T03:36:43.034Z,0
2016-03-24T03:37:43.006Z,0
2016-03-24T03:38:43.008Z,0
2016-03-24T03:39:42.995Z,0
2016-03-24T03:40:42.966Z,0
2016-03-24T03:41:42.955Z,0
2016-03-24T03:42:42.941Z,0
2016-03-24T03:43:42.928Z,0
2016-03-24T03:44:42.915Z,0
2016-03-24T03:45:42.886Z,0
2016-03-24T03:46:42.888Z,0
2016-03-24T03:47:42.860Z,0
2016-03-24T03:48:42.863Z,0
2016-03-24T03:49:42.835Z,0
2016-03-24T03:50:42.821Z,0
2016-03-24T03:51:42.810Z,0
2016-03-24T03:52:42.780Z,0
2016-03-24T03:53:42.768Z,0
2016-03-24T03:54:42.754Z,0
2016-03-24T03:55:42.742Z,0
2016-03-24T03:56:42.744Z,0
2016-03-24T03:57:42.716Z,0
2016-03-24T03:58:42.703Z,0
2016-03-24T03:59:42.690Z,0
2016-03-24T04:00:42.692Z,0
2016-03-24T04:01:42.664Z,0
2016-03-24T04:02:42.651Z,0
2016-03-24T04:03:42.639Z,0
2016-03-24T04:04:42.609Z,0
2016-03-24T04:05:42.581Z,0
2016-03-24T04:06:42.573Z,0
2016-03-24T04:07:42.560Z,0
2016-03-24T04:08:42.547Z,0
2016-03-24T04:09:42.533Z,0
2016-03-24T04:10:42.521Z,0
2016-03-24T04:11:42.507Z,0
2016-03-24T04:12:42.496Z,0
2016-03-24T04:13:42.466Z,0
2016-03-24T04:14:42.454Z,0
2016-03-24T04:15:42.424Z,0
2016-03-24T04:16:42.413Z,0
2016-03-24T04:17:42.415Z,0
2016-03-24T04:18:42.402Z,0
2016-03-24T04:19:42.389Z,0
2016-03-24T04:20:42.360Z,0
2016-03-24T04:21:42.348Z,0
2016-03-24T04:22:42.335Z,0
2016-03-24T04:23:42.321Z,0
2016-03-24T04:24:42.309Z,0
2016-03-24T04:25:42.296Z,0
2016-03-24T04:26:42.283Z,0
2016-03-24T04:27:42.270Z,0
2016-03-24T04:28:42.242Z,0
2016-03-24T04:29:42.228Z,0
2016-03-24T04:30:42.215Z,0
2016-03-24T04:31:42.203Z,0
2016-03-24T04:32:42.189Z,0
2016-03-24T04:33:42.177Z,0
2016-03-24T04:34:42.147Z,0
2016-03-24T04:35:42.135Z,0
2016-03-24T04:36:42.138Z,0
2016-03-24T04:37:42.125Z,0
2016-03-24T04:38:42.096Z,0
2016-03-24T04:39:42.083Z,0
2016-03-24T04:40:42.070Z,0
2016-03-24T04:41:42.073Z,0
2016-03-24T04:42:42.044Z,0
2016-03-24T04:43:42.032Z,0
2016-03-24T04:44:42.002Z,0
2016-03-24T04:45:41.990Z,0
2016-03-24T04:46:41.977Z,0
2016-03-24T04:47:41.965Z,0
2016-03-24T04:48:41.935Z,0
2016-03-24T04:49:41.923Z,0
2016-03-24T04:50:41.925Z,0
2016-03-24T04:51:41.913Z,0
2016-03-24T04:52:41.899Z,0
2016-03-24T04:53:41.887Z,4
2016-03-24T04:54:41.858Z,4
2016-03-24T04:55:41.861Z,0
2016-03-24T04:56:41.831Z,0
2016-03-24T04:57:41.820Z,0
2016-03-24T04:58:41.790Z,4
2016-03-24T04:59:41.778Z,4
2016-03-24T05:00:41.764Z,4
2016-03-24T05:01:41.753Z,4
2016-03-24T05:02:41.739Z,4
2016-03-24T05:03:41.711Z,8
2016-03-24T05:04:41.728Z,12
2016-03-24T05:05:41.684Z,12
2016-03-24T05:06:41.686Z,12
2016-03-24T05:07:41.659Z,16
2016-03-24T05:08:41.661Z,20
2016-03-24T05:09:41.633Z,24
2016-03-24T05:10:41.619Z,28
2016-03-24T05:11:41.607Z,32
2016-03-24T05:12:47.907Z,36
2016-03-24T05:13:41.690Z,44
2016-03-24T05:14:41.552Z,52
2016-03-24T05:15:41.540Z,64
2016-03-24T05:16:41.527Z,84
2016-03-24T05:17:41.560Z,96
2016-03-24T05:18:41.501Z,108
2016-03-24T05:19:41.457Z,120
2016-03-24T05:20:41.459Z,132
2016-03-24T05:21:41.462Z,144
2016-03-24T05:22:41.434Z,164
2016-03-24T05:23:41.436Z,180
2016-03-24T05:24:41.423Z,196
2016-03-24T05:25:41.394Z,208
2016-03-24T05:26:41.381Z,224
2016-03-24T05:27:41.384Z,240
2016-03-24T05:28:41.340Z,256
2016-03-24T05:29:41.327Z,264
2016-03-24T05:30:41.314Z,280
2016-03-24T05:31:41.286Z,304
2016-03-24T05:32:41.273Z,340
2016-03-24T05:33:41.275Z,384
2016-03-24T05:34:41.247Z,436
2016-03-24T05:35:41.249Z,496
2016-03-24T05:36:41.222Z,560
2016-03-24T05:37:41.208Z,620
2016-03-24T05:38:41.211Z,688
2016-03-24T05:39:41.182Z,760
2016-03-24T05:40:41.169Z,836
2016-03-24T05:41:41.155Z,916
2016-03-24T05:42:41.128Z,988
2016-03-24T05:43:41.130Z,1032
2016-03-24T05:44:41.102Z,1080
2016-03-24T05:45:41.089Z,1120
2016-03-24T05:46:41.061Z,1156
2016-03-24T05:47:41.047Z,1204
2016-03-24T05:48:41.035Z,1264
2016-03-24T05:49:41.006Z,1348
2016-03-24T05:50:41.009Z,1496
2016-03-24T05:51:41.012Z,1688
2016-03-24T05:52:40.983Z,1896
2016-03-24T05:53:40.970Z,2064
2016-03-24T05:54:40.957Z,2144
2016-03-24T05:55:40.943Z,2184
2016-03-24T05:56:40.931Z,2248
2016-03-24T05:57:40.918Z,2308
2016-03-24T05:58:40.890Z,2336
2016-03-24T05:59:40.829Z,2336
2016-03-24T06:00:40.957Z,2388
2016-03-24T06:01:40.882Z,2460
2016-03-24T06:02:40.822Z,2512
2016-03-24T06:03:40.794Z,2532
2016-03-24T06:04:40.796Z,2588
2016-03-24T06:05:40.799Z,2708
2016-03-24T06:06:40.786Z,2932
2016-03-24T06:07:40.758Z,3148
2016-03-24T06:08:40.761Z,3364
2016-03-24T06:09:40.731Z,3616
2016-03-24T06:10:40.718Z,3832
2016-03-24T06:11:40.721Z,3632
2016-03-24T06:12:40.708Z,3144
2016-03-24T06:13:40.680Z,3032
2016-03-24T06:14:40.666Z,3004
2016-03-24T06:15:40.638Z,2916
2016-03-24T06:16:40.641Z,3004
2016-03-24T06:17:40.613Z,2972
2016-03-24T06:18:40.599Z,2468
2016-03-24T06:19:40.571Z,2148
2016-03-24T06:20:40.573Z,2388
2016-03-24T06:21:40.576Z,2788
2016-03-24T06:22:40.548Z,2980
2016-03-24T06:23:40.535Z,2912
2016-03-24T06:24:40.521Z,2676
2016-03-24T06:25:40.493Z,2552
2016-03-24T06:26:40.495Z,2516
2016-03-24T06:27:40.484Z,2544
2016-03-24T06:28:40.470Z,2768
2016-03-24T06:29:40.442Z,3536
2016-03-24T06:30:40.428Z,3996
2016-03-24T06:31:40.416Z,3536
2016-03-24T06:32:40.403Z,2524
2016-03-24T06:33:40.375Z,1864
2016-03-24T06:34:40.361Z,1528
2016-03-24T06:35:40.364Z,1580
2016-03-24T06:36:40.195Z,1632
2016-03-24T06:37:40.339Z,1624
2016-03-24T06:38:40.309Z,2172
2016-03-24T06:39:40.297Z,2796
2016-03-24T06:40:40.299Z,3136
2016-03-24T06:41:40.286Z,3212
2016-03-24T06:42:40.258Z,3400
2016-03-24T06:43:40.245Z,3512
2016-03-24T06:44:40.075Z,3352
2016-03-24T06:45:40.203Z,3132
2016-03-24T06:46:40.191Z,3476
2016-03-24T06:47:40.178Z,3872
2016-03-24T06:48:40.165Z,3880
2016-03-24T06:49:40.135Z,3584
2016-03-24T06:50:46.513Z,3608
2016-03-24T06:51:40.235Z,3828
2016-03-24T06:52:40.222Z,3980
2016-03-24T06:53:40.131Z,4200
2016-03-24T06:54:40.118Z,4428
2016-03-24T06:55:40.089Z,4756
2016-03-24T06:56:40.077Z,5124
2016-03-24T06:57:40.048Z,5592
2016-03-24T06:58:40.051Z,6248
2016-03-24T06:59:40.022Z,7028
2016-03-24T07:00:40.010Z,7408
2016-03-24T07:01:39.996Z,7724
2016-03-24T07:02:39.984Z,8008
2016-03-24T07:03:39.970Z,8588
2016-03-24T07:04:39.942Z,9336
2016-03-24T07:05:39.961Z,10116
2016-03-24T07:06:39.932Z,10700
2016-03-24T07:07:39.919Z,10716
2016-03-24T07:08:39.906Z,10412
2016-03-24T07:09:39.862Z,10584
2016-03-24T07:10:39.834Z,10548
2016-03-24T07:11:39.820Z,10616
2016-03-24T07:12:39.807Z,9844
2016-03-24T07:13:39.794Z,9088
2016-03-24T07:14:39.906Z,8420
2016-03-24T07:15:39.894Z,8152
2016-03-24T07:16:39.786Z,7844
2016-03-24T07:17:39.758Z,7936
2016-03-24T07:18:39.745Z,8484
2016-03-24T07:19:39.733Z,8280
2016-03-24T07:20:39.735Z,8060
2016-03-24T07:21:39.737Z,8588
2016-03-24T07:22:39.710Z,9460
2016-03-24T07:23:39.696Z,9640
2016-03-24T07:24:39.668Z,9560
2016-03-24T07:25:39.671Z,10072
2016-03-24T07:26:39.642Z,11068
2016-03-24T07:27:39.629Z,11356
2016-03-24T07:28:39.616Z,10932
2016-03-24T07:29:39.588Z,9856
2016-03-24T07:30:39.574Z,8600
2016-03-24T07:31:39.576Z,7824
2016-03-24T07:32:39.565Z,7664
2016-03-24T07:33:39.536Z,6864
2016-03-24T07:34:39.601Z,5968
2016-03-24T07:35:39.510Z,5708
2016-03-24T07:36:39.512Z,6156
2016-03-24T07:37:39.484Z,6592
2016-03-24T07:38:39.470Z,6532
2016-03-24T07:39:39.458Z,7076
2016-03-24T07:40:39.445Z,7384
2016-03-24T07:41:39.447Z,6796
2016-03-24T07:42:39.419Z,6504
2016-03-24T07:43:39.406Z,7196
2016-03-24T07:44:39.394Z,6996
2016-03-24T07:45:39.380Z,7180
2016-03-24T07:46:39.367Z,7120
2016-03-24T07:47:39.354Z,7312
2016-03-24T07:48:39.342Z,7388
2016-03-24T07:49:39.469Z,7944
2016-03-24T07:50:39.315Z,8300
2016-03-24T07:51:39.303Z,8376
2016-03-24T07:52:39.274Z,8036
2016-03-24T07:53:39.277Z,7872
2016-03-24T07:54:39.264Z,8032
2016-03-24T07:55:39.251Z,8552
2016-03-24T07:56:39.238Z,8408
2016-03-24T07:57:39.241Z,7740
2016-03-24T07:58:39.197Z,7524
2016-03-24T07:59:39.184Z,8004
2016-03-24T08:00:39.186Z,8316
2016-03-24T08:01:39.143Z,9556
2016-03-24T08:02:39.129Z,10316
2016-03-24T08:03:39.117Z,10652
2016-03-24T08:04:39.291Z,10204
2016-03-24T08:05:39.106Z,9668
2016-03-24T08:06:39.077Z,9588
2016-03-24T08:07:38.903Z,9480
2016-03-24T08:08:39.046Z,8680
2016-03-24T08:09:39.033Z,7696
2016-03-24T08:10:39.020Z,7468
2016-03-24T08:11:39.007Z,7516
2016-03-24T08:12:38.994Z,7668
2016-03-24T08:13:38.980Z,7716
2016-03-24T08:14:38.999Z,7300
2016-03-24T08:15:38.955Z,6872
2016-03-24T08:16:38.943Z,7152
2016-03-24T08:17:38.913Z,7508
2016-03-24T08:18:38.916Z,7916
2016-03-24T08:19:39.091Z,8596
2016-03-24T08:20:38.875Z,9216
2016-03-24T08:21:38.862Z,9436
2016-03-24T08:22:38.848Z,9616
2016-03-24T08:23:38.837Z,10132
2016-03-24T08:24:38.823Z,10328
2016-03-24T08:25:38.810Z,10588
2016-03-24T08:26:38.798Z,10788
2016-03-24T08:27:38.784Z,11228
2016-03-24T08:28:38.771Z,11552
2016-03-24T08:29:38.759Z,11984
2016-03-24T08:30:38.745Z,12176
2016-03-24T08:31:38.733Z,12496
2016-03-24T08:32:38.720Z,12916
2016-03-24T08:33:38.706Z,12916
2016-03-24T08:34:38.792Z,12680
2016-03-24T08:35:38.654Z,12920
2016-03-24T08:36:38.624Z,13360
2016-03-24T08:37:38.597Z,13592
2016-03-24T08:38:38.567Z,13452
2016-03-24T08:39:38.546Z,12848
2016-03-24T08:40:38.372Z,12164
2016-03-24T08:41:38.352Z,11264
2016-03-24T08:42:38.491Z,10648
2016-03-24T08:43:38.471Z,10340
2016-03-24T08:44:38.440Z,10132
2016-03-24T08:45:38.440Z,9684
2016-03-24T08:46:38.425Z,9464
2016-03-24T08:47:38.412Z,9476
2016-03-24T08:48:38.396Z,9608
2016-03-24T08:49:38.523Z,9864
2016-03-24T08:50:38.352Z,10104
2016-03-24T08:51:38.339Z,10248
2016-03-24T08:52:38.340Z,10148
2016-03-24T08:53:38.328Z,9892
2016-03-24T08:54:38.299Z,9548
2016-03-24T08:55:38.285Z,9208
2016-03-24T08:56:38.272Z,9016
2016-03-24T08:57:38.273Z,8860
2016-03-24T08:58:38.245Z,8812
2016-03-24T08:59:38.231Z,8976
2016-03-24T09:00:38.250Z,9424
2016-03-24T09:01:38.206Z,10156
2016-03-24T09:02:38.194Z,10976
2016-03-24T09:03:38.180Z,11648
2016-03-24T09:04:38.074Z,12196
2016-03-24T09:05:38.155Z,12884
2016-03-24T09:06:38.141Z,13592
2016-03-24T09:07:38.128Z,14308
2016-03-24T09:08:38.115Z,15080
2016-03-24T09:09:38.102Z,15640
2016-03-24T09:10:38.090Z,16152
2016-03-24T09:11:38.077Z,16540
2016-03-24T09:12:38.063Z,16912
2016-03-24T09:13:38.066Z,17248
2016-03-24T09:14:38.038Z,17388
2016-03-24T09:15:38.040Z,17272
2016-03-24T09:16:38.012Z,16944
2016-03-24T09:17:37.999Z,16604
2016-03-24T09:18:38.017Z,16312
2016-03-24T09:19:37.973Z,16024
2016-03-24T09:20:37.960Z,15748
2016-03-24T09:21:37.948Z,15528
2016-03-24T09:22:37.934Z,15480
2016-03-24T09:23:37.906Z,15376
2016-03-24T09:24:37.893Z,15440
2016-03-24T09:25:37.895Z,15932
2016-03-24T09:26:37.883Z,16432
2016-03-24T09:27:37.870Z,16824
2016-03-24T09:28:37.842Z,17136
2016-03-24T09:29:37.828Z,17424
2016-03-24T09:30:37.831Z,17800
2016-03-24T09:31:37.802Z,18392
2016-03-24T09:32:37.789Z,18964
2016-03-24T09:33:37.792Z,19648
2016-03-24T09:34:37.779Z,20192
2016-03-24T09:35:37.782Z,20704
2016-03-24T09:36:37.753Z,20896
2016-03-24T09:37:37.741Z,21120
2016-03-24T09:38:37.727Z,21312
2016-03-24T09:39:37.714Z,21536
2016-03-24T09:40:37.702Z,21536
2016-03-24T09:41:37.688Z,21440
2016-03-24T09:42:37.691Z,21344
2016-03-24T09:43:37.757Z,21248
2016-03-24T09:44:37.666Z,21248
2016-03-24T09:45:37.652Z,21344
2016-03-24T09:46:37.640Z,21504
2016-03-24T09:47:37.690Z,21664
2016-03-24T09:48:37.613Z,21696
2016-03-24T09:49:37.601Z,21632
2016-03-24T09:50:37.572Z,21472
2016-03-24T09:51:37.575Z,21312
2016-03-24T09:52:37.546Z,20992
2016-03-24T09:53:37.548Z,20576
2016-03-24T09:54:37.521Z,19936
2016-03-24T09:55:37.507Z,18708
2016-03-24T09:56:37.509Z,17340
2016-03-24T09:57:37.498Z,16920
2016-03-24T09:58:37.484Z,16916
2016-03-24T09:59:37.471Z,16696
2016-03-24T10:00:37.459Z,16704
2016-03-24T10:01:37.477Z,16712
2016-03-24T10:02:37.433Z,16832
2016-03-24T10:03:37.451Z,17252
2016-03-24T10:04:37.406Z,17980
2016-03-24T10:05:37.394Z,18776
2016-03-24T10:06:37.381Z,19616
2016-03-24T10:07:37.368Z,20192
2016-03-24T10:08:37.370Z,20768
2016-03-24T10:09:37.342Z,21440
2016-03-24T10:10:37.344Z,22112
2016-03-24T10:11:37.316Z,22848
2016-03-24T10:12:37.319Z,23808
2016-03-24T10:13:37.291Z,24544
2016-03-24T10:14:37.293Z,25056
2016-03-24T10:15:37.280Z,25600
2016-03-24T10:16:37.267Z,26208
2016-03-24T10:17:37.254Z,26656
2016-03-24T10:18:37.241Z,27040
2016-03-24T10:19:37.229Z,27040
2016-03-24T10:20:37.215Z,27328
2016-03-24T10:21:37.202Z,27648
2016-03-24T10:22:37.190Z,27872
2016-03-24T10:23:37.177Z,28448
2016-03-24T10:24:37.179Z,29152
2016-03-24T10:25:37.166Z,29760
2016-03-24T10:26:37.153Z,30080
2016-03-24T10:27:37.140Z,30016
2016-03-24T10:28:37.128Z,29472
2016-03-24T10:29:37.114Z,28128
2016-03-24T10:30:37.102Z,26688
2016-03-24T10:31:37.089Z,25568
2016-03-24T10:32:37.076Z,25024
2016-03-24T10:33:37.078Z,24800
2016-03-24T10:34:37.066Z,24416
2016-03-24T10:35:37.053Z,24000
2016-03-24T10:36:37.039Z,23840
2016-03-24T10:37:37.026Z,23520
2016-03-24T10:38:37.014Z,23008
2016-03-24T10:39:37.000Z,22496
2016-03-24T10:40:36.988Z,22240
2016-03-24T10:41:36.990Z,22496
2016-03-24T10:42:36.978Z,22784
2016-03-24T10:43:36.965Z,23072
2016-03-24T10:44:36.951Z,23040
2016-03-24T10:45:36.938Z,22752
2016-03-24T10:46:36.926Z,22752
2016-03-24T10:47:36.912Z,23296
2016-03-24T10:48:36.915Z,23968
2016-03-24T10:49:36.902Z,24480
2016-03-24T10:50:36.874Z,24608
2016-03-24T10:51:36.720Z,24704
2016-03-24T10:52:36.864Z,24800
2016-03-24T10:53:36.851Z,24640
2016-03-24T10:54:36.838Z,24320
2016-03-24T10:55:36.856Z,24064
2016-03-24T10:56:36.843Z,23648
2016-03-24T10:57:36.831Z,23616
2016-03-24T10:58:36.817Z,23616
2016-03-24T10:59:36.804Z,23808
2016-03-24T11:00:36.806Z,23552
2016-03-24T11:01:36.810Z,22912
2016-03-24T11:02:36.767Z,22368
2016-03-24T11:03:36.769Z,22272
2016-03-24T11:04:36.756Z,22304
2016-03-24T11:05:36.727Z,22304
2016-03-24T11:06:36.714Z,22432
2016-03-24T11:07:36.701Z,22528
2016-03-24T11:08:36.688Z,22624
2016-03-24T11:09:36.737Z,22688
2016-03-24T11:10:36.677Z,22528
2016-03-24T11:11:36.665Z,22336
2016-03-24T11:12:36.683Z,22496
2016-03-24T11:13:36.655Z,22688
2016-03-24T11:14:36.641Z,22944
2016-03-24T11:15:36.644Z,23168
2016-03-24T11:16:36.615Z,23136
2016-03-24T11:17:36.603Z,22848
2016-03-24T11:18:36.590Z,22496
2016-03-24T11:19:36.593Z,22208
2016-03-24T11:20:36.579Z,22176
2016-03-24T11:21:36.551Z,22112
2016-03-24T11:22:36.554Z,22144
2016-03-24T11:23:36.540Z,21888
2016-03-24T11:24:36.529Z,21632
2016-03-24T11:25:36.515Z,21504
2016-03-24T11:26:36.501Z,21376
2016-03-24T11:27:36.490Z,21472
2016-03-24T11:28:36.476Z,21600
2016-03-24T11:29:36.478Z,21792
2016-03-24T11:30:36.467Z,21952
2016-03-24T11:31:36.437Z,21920
2016-03-24T11:32:36.440Z,21856
2016-03-24T11:33:36.428Z,21696
2016-03-24T11:34:36.414Z,21472
2016-03-24T11:35:36.401Z,21312
2016-03-24T11:36:36.388Z,21248
2016-03-24T11:37:36.391Z,20800
2016-03-24T11:38:36.378Z,20192
2016-03-24T11:39:36.366Z,19904
2016-03-24T11:40:36.368Z,20192
2016-03-24T11:41:36.355Z,20448
2016-03-24T11:42:36.342Z,20576
2016-03-24T11:43:36.329Z,20320
2016-03-24T11:44:36.332Z,20224
2016-03-24T11:45:36.303Z,20320
2016-03-24T11:46:36.290Z,20384
2016-03-24T11:47:36.278Z,20352
2016-03-24T11:48:36.280Z,20448
2016-03-24T11:49:36.267Z,20384
2016-03-24T11:50:36.254Z,20192
2016-03-24T11:51:36.240Z,20160
2016-03-24T11:52:36.228Z,20352
2016-03-24T11:53:36.215Z,20416
2016-03-24T11:54:36.202Z,20416
2016-03-24T11:55:36.190Z,20480
2016-03-24T11:56:36.176Z,21152
2016-03-24T11:57:36.164Z,21792
2016-03-24T11:58:36.167Z,21760
2016-03-24T11:59:36.153Z,21408
2016-03-24T12:00:36.140Z,21152
2016-03-24T12:01:36.128Z,21088
2016-03-24T12:02:36.115Z,21152
2016-03-24T12:03:36.101Z,21184
2016-03-24T12:04:36.089Z,20928
2016-03-24T12:05:36.075Z,20640
2016-03-24T12:06:36.078Z,20608
2016-03-24T12:07:36.066Z,20672
2016-03-24T12:08:36.052Z,20960
2016-03-24T12:09:36.040Z,21536
2016-03-24T12:10:36.042Z,21920
2016-03-24T12:11:36.029Z,21920
2016-03-24T12:12:36.016Z,21984
2016-03-24T12:13:36.003Z,22016
2016-03-24T12:14:35.991Z,21824
2016-03-24T12:15:36.008Z,21568
2016-03-24T12:16:35.997Z,21152
2016-03-24T12:17:35.952Z,20736
2016-03-24T12:18:35.970Z,20352
2016-03-24T12:19:35.941Z,20000
2016-03-24T12:20:35.928Z,19520
2016-03-24T12:21:35.931Z,18908
2016-03-24T12:22:35.918Z,18752
2016-03-24T12:23:35.904Z,18636
2016-03-24T12:24:35.924Z,18712
2016-03-24T12:25:35.864Z,19552
2016-03-24T12:26:35.867Z,20064
2016-03-24T12:27:35.869Z,20352
2016-03-24T12:28:35.841Z,20704
2016-03-24T12:29:35.828Z,20992
2016-03-24T12:30:35.831Z,21216
2016-03-24T12:31:35.817Z,21568
2016-03-24T12:32:35.789Z,21856
2016-03-24T12:33:35.807Z,21920
2016-03-24T12:34:35.763Z,21888
2016-03-24T12:35:35.781Z,21600
2016-03-24T12:36:35.753Z,21664
2016-03-24T12:37:35.772Z,21920
2016-03-24T12:38:35.727Z,22208
2016-03-24T12:39:35.714Z,22720
2016-03-24T12:40:35.733Z,23104
2016-03-24T12:41:35.703Z,23488
2016-03-24T12:42:35.722Z,23232
2016-03-24T12:43:35.693Z,22496
2016-03-24T12:44:35.728Z,21632
2016-03-24T12:45:35.683Z,20928
2016-03-24T12:46:35.654Z,20000
2016-03-24T12:47:35.657Z,18828
2016-03-24T12:48:35.629Z,17976
2016-03-24T12:49:35.616Z,17392
2016-03-24T12:50:35.602Z,17424
2016-03-24T12:51:35.590Z,18012
2016-03-24T12:52:35.593Z,18560
2016-03-24T12:53:35.580Z,18768
2016-03-24T12:54:35.582Z,18860
2016-03-24T12:55:35.554Z,19264
2016-03-24T12:56:35.556Z,19456
2016-03-24T12:57:35.544Z,19552
2016-03-24T12:58:35.531Z,18924
2016-03-24T12:59:35.517Z,17860
2016-03-24T13:00:35.520Z,16212
2016-03-24T13:01:35.492Z,14440
2016-03-24T13:02:35.479Z,12928
2016-03-24T13:03:35.481Z,11672
2016-03-24T13:04:35.454Z,10676
2016-03-24T13:05:35.456Z,10068
2016-03-24T13:06:35.459Z,9516
2016-03-24T13:07:35.430Z,9172
2016-03-24T13:08:35.416Z,8928
2016-03-24T13:09:35.264Z,8732
2016-03-24T13:10:35.391Z,8668
2016-03-24T13:11:35.378Z,8872
2016-03-24T13:12:35.396Z,9644
2016-03-24T13:13:35.369Z,10824
2016-03-24T13:14:35.355Z,11572
2016-03-24T13:15:35.358Z,12264
2016-03-24T13:16:35.329Z,13432
2016-03-24T13:17:35.348Z,14432
2016-03-24T13:18:35.303Z,14756
2016-03-24T13:19:35.321Z,14544
2016-03-24T13:20:35.308Z,14036
2016-03-24T13:21:35.279Z,13380
2016-03-24T13:22:35.268Z,12832
2016-03-24T13:23:35.254Z,12456
2016-03-24T13:24:35.241Z,12132
2016-03-24T13:25:35.260Z,11992
2016-03-24T13:26:35.232Z,11948
2016-03-24T13:27:35.202Z,11828
2016-03-24T13:28:35.220Z,11732
2016-03-24T13:29:35.177Z,11636
2016-03-24T13:30:35.179Z,11400
2016-03-24T13:31:35.198Z,11012
2016-03-24T13:32:35.170Z,10672
2016-03-24T13:33:35.172Z,10584
2016-03-24T13:34:35.142Z,10692
2016-03-24T13:35:35.333Z,10832
2016-03-24T13:36:35.117Z,11264
2016-03-24T13:37:35.120Z,11932
2016-03-24T13:38:35.091Z,12540
2016-03-24T13:39:35.079Z,12928
2016-03-24T13:40:35.081Z,13264